createdAt,value
2019-04-22T00:00:08.717Z,24.87
2019-04-22T00:02:43.555Z,24.23
2019-04-22T00:05:17.601Z,20.73
2019-04-22T00:08:03.189Z,21.57
2019-04-22T00:10:32.729Z,26.17
2019-04-22T00:13:02.978Z,21.27
2019-04-22T00:15:27.238Z,17.43
2019-04-22T00:18:07.681Z,22.47
2019-04-22T00:20:30.870Z,25.67
2019-04-22T00:23:00.193Z,20.47
2019-04-22T00:25:39.242Z,23.70
2019-04-22T00:28:02.318Z,20.80
2019-04-22T00:30:32.532Z,25.00
2019-04-22T00:33:29.437Z,27.53
2019-04-22T00:35:54.575Z,23.10
2019-04-22T00:40:50.950Z,21.67
2019-04-22T00:43:24.646Z,22.70
2019-04-22T00:46:15.595Z,19.70
2019-04-22T00:48:27.541Z,23.00
2019-04-22T00:51:01.379Z,19.93
2019-04-22T00:56:00.631Z,22.87
2019-04-22T00:58:31.006Z,19.17
2019-04-22T01:01:05.963Z,19.50
2019-04-22T01:03:37.264Z,24.70
2019-04-22T01:05:55.361Z,23.37
2019-04-22T01:08:35.317Z,21.10
2019-04-22T01:11:06.334Z,23.83
2019-04-22T01:13:24.789Z,19.97
2019-04-22T01:16:01.178Z,23.57
2019-04-22T01:18:29.669Z,24.57
2019-04-22T01:23:24.041Z,22.53
2019-04-22T01:25:54.066Z,24.70
2019-04-22T01:28:18.083Z,25.63
2019-04-22T01:30:44.104Z,18.33
2019-04-22T01:33:15.030Z,21.67
2019-04-22T01:35:56.909Z,22.73
2019-04-22T01:38:23.676Z,18.87
2019-04-22T01:41:05.317Z,19.60
2019-04-22T01:43:35.418Z,22.13
2019-04-22T01:46:01.744Z,18.67
2019-04-22T01:48:36.590Z,19.73
2019-04-22T01:50:54.982Z,20.37
2019-04-22T01:53:33.762Z,18.90
2019-04-22T01:56:03.760Z,21.40
2019-04-22T01:58:23.425Z,20.30
2019-04-22T02:00:59.182Z,16.90
2019-04-22T02:03:36.075Z,21.37
2019-04-22T02:05:59.535Z,22.63
2019-04-22T02:08:39.366Z,18.73
2019-04-22T02:11:00.757Z,18.73
2019-04-22T02:13:29.041Z,17.70
2019-04-22T02:15:58.297Z,20.40
2019-04-22T02:18:31.866Z,20.77
2019-04-22T02:20:59.789Z,20.30
2019-04-22T02:26:02.491Z,25.33
2019-04-22T02:28:38.342Z,19.33
2019-04-22T02:31:23.545Z,19.17
2019-04-22T02:34:01.251Z,18.50
2019-04-22T02:36:20.247Z,16.27
2019-04-22T02:46:23.262Z,19.77
2019-04-22T02:51:12.644Z,24.20
2019-04-22T02:56:21.372Z,21.20
2019-04-22T02:58:50.638Z,17.13
2019-04-22T03:06:34.666Z,23.17
2019-04-22T03:08:59.586Z,17.07
2019-04-22T03:18:57.158Z,25.10
2019-04-22T03:21:20.071Z,22.17
2019-04-22T03:24:08.491Z,19.83
2019-04-22T03:26:30.725Z,19.10
2019-04-22T03:28:51.476Z,16.40
2019-04-22T03:34:54.744Z,23.70
2019-04-22T03:42:01.150Z,19.03
2019-04-22T03:44:18.731Z,18.70
2019-04-22T03:46:43.971Z,19.30
2019-04-22T03:49:23.226Z,18.27
2019-04-22T03:51:49.823Z,16.70
2019-04-22T03:59:22.863Z,19.93
2019-04-22T04:01:57.442Z,17.07
2019-04-22T04:06:54.242Z,19.73
2019-04-22T04:09:09.597Z,18.97
2019-04-22T04:11:52.197Z,20.43
2019-04-22T04:14:09.587Z,20.40
2019-04-22T04:16:41.006Z,15.93
2019-04-22T04:19:13.898Z,23.10
2019-04-22T04:24:22.554Z,20.87
2019-04-22T04:26:45.762Z,17.87
2019-04-22T04:34:22.192Z,14.57
2019-04-22T04:36:41.719Z,16.50
2019-04-22T04:39:05.596Z,13.67
2019-04-22T04:49:09.726Z,13.43
2019-04-22T04:54:19.635Z,15.03
2019-04-22T05:01:35.446Z,17.47
2019-04-22T05:04:04.689Z,12.70
2019-04-22T05:06:44.980Z,16.77
2019-04-22T05:09:13.542Z,16.53
2019-04-22T05:11:40.679Z,17.67
2019-04-22T05:21:26.698Z,15.50
2019-04-22T05:24:02.668Z,18.17
2019-04-22T05:26:30.864Z,22.87
2019-04-22T05:28:52.145Z,16.87
2019-04-22T05:31:22.733Z,15.10
2019-04-22T05:34:01.246Z,21.03
2019-04-22T05:36:25.892Z,17.87
2019-04-22T05:38:53.662Z,18.13
2019-04-22T05:41:22.253Z,18.10
2019-04-22T05:43:51.702Z,18.33
2019-04-22T05:46:26.233Z,16.07
2019-04-22T05:48:55.305Z,19.67
2019-04-22T05:51:21.714Z,15.27
2019-04-22T05:53:48.290Z,17.07
2019-04-22T05:56:28.204Z,15.47
2019-04-22T05:58:51.478Z,16.70
2019-04-22T06:03:52.782Z,15.23
2019-04-22T06:06:18.254Z,15.83
2019-04-22T06:08:55.901Z,20.63
2019-04-22T06:11:29.586Z,12.90
2019-04-22T06:13:46.551Z,13.60
2019-04-22T06:16:20.530Z,13.90
2019-04-22T06:18:48.983Z,14.57
2019-04-22T06:21:18.748Z,15.27
2019-04-22T06:23:58.875Z,13.40
2019-04-22T06:26:46.318Z,8.57
2019-04-22T06:33:56.543Z,12.07
2019-04-22T06:36:27.521Z,15.00
2019-04-22T06:38:51.398Z,12.83
2019-04-22T06:41:23.956Z,14.20
2019-04-22T06:43:54.499Z,12.13
2019-04-22T06:46:22.409Z,16.80
2019-04-22T06:48:52.440Z,11.20
2019-04-22T06:51:20.203Z,13.77
2019-04-22T06:53:48.187Z,13.30
2019-04-22T06:56:15.757Z,12.50
2019-04-22T06:58:47.709Z,12.47
2019-04-22T07:03:56.939Z,12.97
2019-04-22T07:06:24.038Z,15.70
2019-04-22T07:11:11.429Z,14.43
2019-04-22T07:14:01.481Z,15.23
2019-04-22T07:16:23.326Z,11.77
2019-04-22T07:18:43.058Z,12.30
2019-04-22T07:21:12.596Z,13.70
2019-04-22T07:23:55.647Z,10.63
2019-04-22T07:28:37.062Z,10.13
2019-04-22T07:33:48.546Z,15.93
2019-04-22T07:36:39.727Z,13.07
2019-04-22T07:38:36.224Z,11.10
2019-04-22T07:41:17.240Z,13.43
2019-04-22T07:43:59.873Z,12.43
2019-04-22T07:46:13.439Z,12.40
2019-04-22T07:48:44.785Z,12.43
2019-04-22T07:51:13.505Z,13.67
2019-04-22T07:53:40.547Z,15.30
2019-04-22T07:56:11.954Z,11.17
2019-04-22T07:58:58.837Z,13.90
2019-04-22T08:01:13.994Z,17.17
2019-04-22T08:03:51.461Z,12.03
2019-04-22T08:06:12.012Z,18.23
2019-04-22T08:08:36.376Z,13.80
2019-04-22T08:11:22.125Z,15.30
2019-04-22T08:13:41.067Z,15.47
2019-04-22T08:16:10.771Z,13.43
2019-04-22T08:18:59.659Z,9.87
2019-04-22T08:21:13.577Z,11.70
2019-04-22T08:26:05.082Z,16.67
2019-04-22T08:28:41.090Z,13.90
2019-04-22T08:31:07.641Z,14.30
2019-04-22T08:38:39.432Z,9.47
2019-04-22T08:41:17.855Z,15.03
2019-04-22T08:43:48.279Z,11.60
2019-04-22T08:46:09.137Z,13.53
2019-04-22T08:48:41.388Z,18.20
2019-04-22T08:51:09.011Z,14.67
2019-04-22T08:53:40.371Z,7.70
2019-04-22T08:56:23.875Z,12.97
2019-04-22T08:58:39.794Z,12.03
2019-04-22T09:01:14.665Z,12.90
2019-04-22T09:03:39.760Z,16.93
2019-04-22T09:06:10.999Z,14.07
2019-04-22T09:08:42.768Z,13.17
2019-04-22T09:11:18.404Z,13.03
2019-04-22T09:13:44.903Z,12.67
2019-04-22T09:16:12.818Z,8.90
2019-04-22T09:18:42.232Z,11.30
2019-04-22T09:21:15.303Z,11.27
2019-04-22T09:23:38.756Z,14.93
2019-04-22T09:26:09.366Z,14.23
2019-04-22T09:28:38.013Z,15.17
2019-04-22T09:31:06.469Z,11.80
2019-04-22T09:36:16.249Z,11.97
2019-04-22T09:38:37.582Z,8.93
2019-04-22T09:41:05.421Z,12.57
2019-04-22T09:43:45.474Z,14.57
2019-04-22T09:46:23.058Z,9.43
2019-04-22T09:48:37.114Z,11.23
2019-04-22T09:51:00.440Z,12.70
2019-04-22T09:53:37.586Z,10.67
2019-04-22T09:56:03.778Z,17.50
2019-04-22T09:58:32.076Z,13.67
2019-04-22T10:01:13.348Z,13.27
2019-04-22T10:03:40.987Z,15.10
2019-04-22T10:06:16.716Z,13.27
2019-04-22T10:08:40.717Z,15.20
2019-04-22T10:11:19.568Z,14.60
2019-04-22T10:13:40.582Z,12.40
2019-04-22T10:16:10.443Z,13.03
2019-04-22T10:18:41.725Z,15.73
2019-04-22T10:21:08.703Z,13.63
2019-04-22T10:23:40.571Z,12.63
2019-04-22T10:26:05.119Z,12.37
2019-04-22T10:28:38.498Z,12.17
2019-04-22T10:31:21.638Z,16.73
2019-04-22T10:33:30.887Z,12.30
2019-04-22T10:35:41.359Z,11.97
2019-04-22T10:38:10.378Z,12.80
2019-04-22T10:40:38.714Z,11.50
2019-04-22T10:43:07.572Z,12.63
2019-04-22T10:45:36.201Z,11.70
2019-04-22T10:48:06.298Z,14.97
2019-04-22T10:50:43.061Z,10.33
2019-04-22T10:53:13.216Z,10.90
2019-04-22T10:55:44.888Z,11.17
2019-04-22T10:58:12.846Z,8.60
2019-04-22T11:00:41.837Z,12.53
2019-04-22T11:03:11.911Z,14.93
2019-04-22T11:05:42.048Z,13.60
2019-04-22T11:08:22.637Z,10.60
2019-04-22T11:10:56.649Z,17.27
2019-04-22T11:13:11.061Z,10.43
2019-04-22T11:15:40.499Z,12.20
2019-04-22T11:18:09.473Z,15.43
2019-04-22T11:20:37.778Z,12.77
2019-04-22T11:23:06.848Z,12.20
2019-04-22T11:25:36.177Z,14.07
2019-04-22T11:28:05.566Z,14.00
2019-04-22T11:30:34.399Z,8.87
2019-04-22T11:33:02.693Z,13.93
2019-04-22T11:35:32.047Z,12.73
2019-04-22T11:38:01.138Z,12.87
2019-04-22T11:40:34.799Z,14.07
2019-04-22T11:42:59.962Z,13.10
2019-04-22T11:45:29.105Z,15.47
2019-04-22T11:47:57.451Z,13.57
2019-04-22T11:50:26.153Z,8.43
2019-04-22T11:52:55.228Z,11.90
2019-04-22T11:55:24.617Z,15.20
2019-04-22T11:57:53.719Z,10.73
2019-04-22T12:00:43.072Z,15.50
2019-04-22T12:03:12.605Z,15.70
2019-04-22T12:05:41.704Z,13.23
2019-04-22T12:08:11.062Z,12.07
2019-04-22T12:10:47.148Z,11.43
2019-04-22T12:13:10.300Z,12.17
2019-04-22T12:15:38.502Z,16.07
2019-04-22T12:18:07.092Z,15.07
2019-04-22T12:20:36.962Z,16.73
2019-04-22T12:23:07.267Z,13.73
2019-04-22T12:25:46.453Z,18.03
2019-04-22T12:28:05.622Z,13.60
2019-04-22T12:30:33.580Z,13.97
2019-04-22T12:33:02.409Z,11.13
2019-04-22T12:35:30.452Z,14.83
2019-04-22T12:38:02.652Z,14.40
2019-04-22T12:40:38.274Z,13.77
2019-04-22T12:42:59.469Z,12.00
2019-04-22T12:45:27.946Z,12.27
2019-04-22T12:48:17.155Z,15.37
2019-04-22T12:50:48.012Z,16.03
2019-04-22T12:53:18.141Z,17.40
2019-04-22T12:55:45.927Z,12.50
2019-04-22T12:58:13.989Z,16.40
2019-04-22T13:00:42.807Z,16.47
2019-04-22T13:03:11.029Z,14.60
2019-04-22T13:05:39.013Z,15.87
2019-04-22T13:08:07.565Z,16.87
2019-04-22T13:10:47.084Z,17.40
2019-04-22T13:13:06.976Z,13.23
2019-04-22T13:15:35.142Z,14.73
2019-04-22T13:18:14.918Z,15.10
2019-04-22T13:20:34.429Z,12.63
2019-04-22T13:23:03.924Z,20.17
2019-04-22T13:25:32.549Z,16.87
2019-04-22T13:28:01.002Z,17.47
2019-04-22T13:30:32.457Z,13.10
2019-04-22T13:33:00.888Z,17.13
2019-04-22T13:35:29.808Z,15.73
2019-04-22T13:37:59.340Z,17.00
2019-04-22T13:40:28.690Z,15.07
2019-04-22T13:42:56.769Z,13.83
2019-04-22T13:45:25.560Z,14.80
2019-04-22T13:48:14.678Z,16.67
2019-04-22T13:53:41.416Z,20.43
2019-04-22T13:55:54.775Z,16.33
2019-04-22T13:58:03.862Z,19.77
2019-04-22T14:00:26.934Z,17.50
2019-04-22T14:03:14.379Z,17.00
2019-04-22T14:05:42.653Z,16.23
2019-04-22T14:08:12.225Z,13.37
2019-04-22T14:10:40.610Z,16.60
2019-04-22T14:13:09.832Z,19.67
2019-04-22T14:15:38.120Z,17.90
2019-04-22T14:18:07.266Z,15.70
2019-04-22T14:20:36.601Z,17.47
2019-04-22T14:23:06.078Z,17.97
2019-04-22T14:25:34.648Z,14.50
2019-04-22T14:28:08.138Z,12.97
2019-04-22T14:30:32.656Z,20.60
2019-04-22T14:33:02.603Z,16.03
2019-04-22T14:35:31.268Z,16.20
2019-04-22T14:38:01.335Z,18.63
2019-04-22T14:40:30.399Z,17.47
2019-04-22T14:43:23.087Z,15.83
2019-04-22T14:46:04.325Z,16.47
2019-04-22T14:48:18.591Z,13.43
2019-04-22T14:50:45.272Z,20.80
2019-04-22T14:53:18.889Z,16.93
2019-04-22T14:55:32.425Z,13.30
2019-04-22T14:57:59.119Z,17.93
2019-04-22T15:00:27.380Z,16.93
2019-04-22T15:02:55.609Z,18.60
2019-04-22T15:05:23.912Z,16.63
2019-04-22T15:07:53.015Z,16.07
2019-04-22T15:10:22.225Z,18.37
2019-04-22T15:12:53.431Z,17.93
2019-04-22T15:15:40.496Z,19.63
2019-04-22T15:18:15.594Z,18.17
2019-04-22T15:20:52.712Z,19.13
2019-04-22T15:23:20.390Z,16.37
2019-04-22T15:25:48.479Z,17.57
2019-04-22T15:28:17.668Z,15.87
2019-04-22T15:30:45.747Z,15.03
2019-04-22T15:33:15.122Z,23.73
2019-04-22T15:35:43.335Z,16.40
2019-04-22T15:38:11.429Z,19.57
2019-04-22T15:40:40.683Z,21.73
2019-04-22T15:43:10.838Z,18.87
2019-04-22T15:45:39.146Z,21.73
2019-04-22T15:48:08.280Z,19.80
2019-04-22T15:50:36.880Z,13.93
2019-04-22T15:53:04.910Z,16.57
2019-04-22T15:55:32.867Z,18.27
2019-04-22T15:58:01.753Z,11.50
2019-04-22T16:00:42.168Z,19.43
2019-04-22T16:02:59.720Z,22.30
2019-04-22T16:05:28.096Z,21.47
2019-04-22T16:07:56.962Z,17.07
2019-04-22T16:10:26.101Z,22.13
2019-04-22T16:13:03.496Z,20.00
2019-04-22T16:15:26.588Z,20.90
2019-04-22T16:17:55.040Z,20.33
2019-04-22T16:20:23.322Z,18.47
2019-04-22T16:23:22.359Z,16.93
2019-04-22T16:26:03.302Z,19.00
2019-04-22T16:28:31.393Z,16.57
2019-04-22T16:30:59.696Z,19.30
2019-04-22T16:33:27.817Z,18.20
2019-04-22T16:35:55.818Z,21.50
2019-04-22T16:38:24.747Z,16.40
2019-04-22T16:40:52.881Z,15.23
2019-04-22T16:43:22.399Z,23.20
2019-04-22T16:45:51.705Z,16.83
2019-04-22T16:48:19.879Z,24.50
2019-04-22T16:50:50.600Z,21.03
2019-04-22T16:53:19.004Z,21.43
2019-04-22T16:55:48.728Z,21.13
2019-04-22T16:58:16.861Z,21.07
2019-04-22T17:00:46.820Z,20.40
2019-04-22T17:03:28.793Z,17.37
2019-04-22T17:06:14.206Z,25.40
2019-04-22T17:08:42.534Z,19.83
2019-04-22T17:11:11.766Z,15.67
2019-04-22T17:13:40.394Z,23.40
2019-04-22T17:16:10.005Z,25.13
2019-04-22T17:18:39.269Z,16.97
2019-04-22T17:21:09.182Z,27.87
2019-04-22T17:23:38.025Z,24.43
2019-04-22T17:26:06.346Z,21.57
2019-04-22T17:28:35.464Z,20.17
2019-04-22T17:31:04.711Z,17.07
2019-04-22T17:33:32.828Z,15.10
2019-04-22T17:36:01.099Z,23.90
2019-04-22T17:38:41.050Z,23.93
2019-04-22T17:41:11.671Z,21.03
2019-04-22T17:43:54.363Z,15.63
2019-04-22T17:46:33.692Z,19.03
2019-04-22T17:49:15.444Z,18.20
2019-04-22T17:51:53.557Z,24.10
2019-04-22T17:54:17.245Z,21.50
2019-04-22T17:56:54.270Z,22.73
2019-04-22T17:59:15.604Z,18.57
2019-04-22T18:01:43.809Z,24.57
2019-04-22T18:03:57.796Z,21.20
2019-04-22T18:06:52.857Z,20.63
2019-04-22T18:09:12.761Z,25.60
2019-04-22T18:11:51.131Z,21.03
2019-04-22T18:14:29.859Z,18.27
2019-04-22T18:16:43.424Z,21.10
2019-04-22T18:19:13.506Z,16.40
2019-04-22T18:21:36.440Z,23.07
2019-04-22T18:24:02.704Z,25.43
2019-04-22T18:26:40.199Z,21.40
2019-04-22T18:29:11.213Z,20.27
2019-04-22T18:31:31.729Z,22.30
2019-04-22T18:34:08.164Z,21.50
2019-04-22T18:36:37.280Z,27.57
2019-04-22T18:39:21.321Z,29.77
2019-04-22T18:41:42.851Z,21.37
2019-04-22T18:44:11.405Z,25.23
2019-04-22T18:46:38.146Z,18.47
2019-04-22T18:49:08.046Z,18.60
2019-04-22T18:51:46.308Z,23.50
2019-04-22T18:54:30.887Z,20.30
2019-04-22T18:57:05.315Z,23.23
2019-04-22T18:59:20.158Z,17.63
2019-04-22T19:01:43.888Z,30.87
2019-04-22T19:04:19.416Z,20.33
2019-04-22T19:06:58.904Z,19.87
2019-04-22T19:09:45.341Z,20.67
2019-04-22T19:12:17.940Z,30.23
2019-04-22T19:14:43.688Z,20.20
2019-04-22T19:17:10.867Z,17.50
2019-04-22T19:19:43.789Z,22.83
2019-04-22T19:22:05.342Z,22.23
2019-04-22T19:24:29.051Z,23.63
2019-04-22T19:27:02.115Z,23.10
2019-04-22T19:29:39.726Z,26.53
2019-04-22T19:32:04.028Z,24.73
2019-04-22T19:34:34.996Z,25.33
2019-04-22T19:37:03.416Z,19.30
2019-04-22T19:39:34.114Z,24.73
2019-04-22T19:42:12.481Z,17.50
2019-04-22T19:44:36.637Z,26.87
2019-04-22T19:47:19.560Z,25.00
2019-04-22T19:49:44.120Z,16.10
2019-04-22T19:52:24.514Z,18.43
2019-04-22T19:54:31.819Z,22.63
2019-04-22T19:56:57.180Z,24.23
2019-04-22T19:59:36.692Z,31.23
2019-04-22T20:02:23.562Z,23.20
2019-04-22T20:05:06.462Z,23.17
2019-04-22T20:07:38.518Z,21.70
2019-04-22T20:10:20.661Z,18.80
2019-04-22T20:12:48.614Z,23.37
2019-04-22T20:15:18.487Z,21.80
2019-04-22T20:18:11.209Z,19.87
2019-04-22T20:20:27.651Z,26.27
2019-04-22T20:22:49.469Z,23.23
2019-04-22T20:25:12.748Z,19.10
2019-04-22T20:27:58.100Z,23.47
2019-04-22T20:30:23.211Z,20.53
2019-04-22T20:32:51.411Z,23.37
2019-04-22T20:35:27.790Z,18.00
2019-04-22T20:37:56.773Z,17.87
2019-04-22T20:40:32.033Z,18.33
2019-04-22T20:43:00.375Z,24.83
2019-04-22T20:45:36.353Z,22.27
2019-04-22T20:47:52.038Z,18.47
2019-04-22T20:50:37.960Z,18.63
2019-04-22T20:53:07.337Z,18.03
2019-04-22T20:55:29.640Z,20.93
2019-04-22T20:58:10.636Z,17.13
2019-04-22T21:00:31.232Z,25.60
2019-04-22T21:02:56.875Z,19.53
2019-04-22T21:05:29.250Z,25.83
2019-04-22T21:08:06.357Z,12.17
2019-04-22T21:10:30.455Z,11.87
2019-04-22T21:13:00.277Z,10.60
2019-04-22T21:15:36.912Z,19.80
2019-04-22T21:18:00.933Z,18.20
2019-04-22T21:20:36.783Z,13.27
2019-04-22T21:23:06.017Z,18.23
2019-04-22T21:25:25.297Z,15.87
2019-04-22T21:28:04.819Z,22.00
2019-04-22T21:30:34.250Z,23.87
2019-04-22T21:32:57.768Z,21.50
2019-04-22T21:35:51.812Z,13.93
2019-04-22T21:38:04.333Z,16.70
2019-04-22T21:40:35.552Z,18.17
2019-04-22T21:43:04.628Z,18.73
2019-04-22T21:45:23.919Z,20.07
2019-04-22T21:48:14.127Z,17.33
2019-04-22T21:50:43.195Z,21.65
2019-04-22T21:53:06.602Z,23.37
2019-04-22T21:55:37.833Z,24.60
2019-04-22T22:01:21.801Z,18.90
2019-04-22T22:03:47.757Z,19.40
2019-04-22T22:06:06.221Z,25.07
2019-04-22T22:08:45.961Z,21.97
2019-04-22T22:11:15.317Z,27.87
2019-04-22T22:13:48.841Z,30.17
2019-04-22T22:16:13.075Z,26.33
2019-04-22T22:18:41.968Z,20.37
2019-04-22T22:21:34.930Z,23.42
2019-04-22T22:23:45.663Z,19.37
2019-04-22T22:26:12.364Z,18.87
2019-04-22T22:31:22.262Z,28.07
2019-04-22T22:33:43.354Z,22.73
2019-04-22T22:36:13.683Z,27.73
2019-04-22T22:38:42.614Z,19.93
2019-04-22T22:40:54.100Z,28.10
2019-04-22T22:43:29.718Z,19.67
2019-04-22T22:46:03.263Z,22.43
2019-04-22T22:48:47.142Z,29.83
2019-04-22T22:51:15.600Z,23.70
2019-04-22T22:53:45.069Z,15.27
2019-04-22T22:56:14.048Z,21.03
2019-04-22T22:58:42.630Z,21.80
2019-04-22T23:01:04.789Z,23.90
2019-04-22T23:06:21.371Z,21.80
2019-04-22T23:08:39.887Z,26.43
2019-04-22T23:11:13.479Z,24.03
2019-04-22T23:13:43.062Z,27.97
2019-04-22T23:16:00.956Z,23.03
2019-04-22T23:18:19.755Z,26.20
2019-04-22T23:20:51.487Z,23.23
2019-04-22T23:23:40.894Z,20.37
2019-04-22T23:26:06.123Z,26.83
2019-04-22T23:28:37.183Z,22.57
2019-04-22T23:31:21.054Z,21.73
2019-04-22T23:34:06.191Z,32.73
2019-04-22T23:37:10.348Z,27.47
2019-04-22T23:39:48.515Z,25.60
2019-04-22T23:42:19.466Z,24.43
2019-04-22T23:44:45.814Z,27.73
2019-04-22T23:47:29.926Z,29.00
2019-04-22T23:50:09.151Z,27.77
2019-04-22T23:53:02.467Z,23.30
2019-04-22T23:55:37.054Z,22.00
2019-04-22T23:58:09.557Z,28.53
